Time;durP1;ratioP1;P1;durP2;ratioP2;P2;SDS_P1;SDS_P2;PMS_P1;PMS_P2;Temp;Humidity;BMP_temperature;BMP_pressure;BME280_temperature;BME280_humidity;BME280_pressure;Samples;Min_cycle;Max_cycle;Signal;HPM_P1;HPM_P2
2023/10/16 00:04:53;;;;;;;4.45;1.60;;;;;;;;;;10415819;28;20044;-70
2023/10/16 00:09:54;;;;;;;2.97;1.35;;;;;;;;;;10415652;28;20057;-71
2023/10/16 00:14:54;;;;;;;1.20;1.08;;;;;;;;;;10413995;28;20032;-71
2023/10/16 00:19:55;;;;;;;1.67;1.40;;;;;;;;;;10415285;28;20021;-70
2023/10/16 00:24:58;;;;;;;2.15;1.00;;;;;;;;;;10417610;28;20545;-68
2023/10/16 00:29:58;;;;;;;1.20;1.00;;;;;;;;;;10414393;28;20056;-69
2023/10/16 00:35:00;;;;;;;1.25;1.05;;;;;;;;;;10415314;28;20028;-69
2023/10/16 00:40:10;;;;;;;1.42;1.20;;;;;;;;;;10405135;28;20041;-69
2023/10/16 00:45:11;;;;;;;1.05;0.82;;;;;;;;;;10415960;28;20033;-69
2023/10/16 00:50:14;;;;;;;1.40;1.10;;;;;;;;;;10422215;28;20303;-71
2023/10/16 00:55:14;;;;;;;1.55;1.40;;;;;;;;;;10422241;28;20013;-70
2023/10/16 01:00:16;;;;;;;1.50;1.27;;;;;;;;;;10422619;28;20410;-70
2023/10/16 01:05:23;;;;;;;2.67;1.70;;;;;;;;;;10421858;28;20372;-70
2023/10/16 01:10:23;;;;;;;2.58;2.10;;;;;;;;;;10425472;28;20032;-71
2023/10/16 01:15:25;;;;;;;3.95;2.92;;;;;;;;;;10421536;28;20049;-71
2023/10/16 01:20:25;;;;;;;5.53;3.83;;;;;;;;;;10420818;28;20017;-68
2023/10/16 01:25:25;;;;;;;7.77;3.77;;;;;;;;;;10421575;28;20022;-69
2023/10/16 01:30:26;;;;;;;6.28;4.57;;;;;;;;;;10420978;28;20084;-68
2023/10/16 01:35:29;;;;;;;6.00;4.25;;;;;;;;;;10412769;28;20068;-69
2023/10/16 01:40:35;;;;;;;5.60;4.65;;;;;;;;;;10409968;28;20041;-69
2023/10/16 01:45:39;;;;;;;7.47;5.30;;;;;;;;;;10419407;28;20033;-70
2023/10/16 01:50:39;;;;;;;8.27;5.25;;;;;;;;;;10420396;28;20029;-69
2023/10/16 01:55:42;;;;;;;10.50;6.53;;;;;;;;;;10418804;28;20021;-69
2023/10/16 02:00:43;;;;;;;9.52;6.90;;;;;;;;;;10419788;28;20613;-69
2023/10/16 02:05:45;;;;;;;9.00;6.72;;;;;;;;;;10418578;28;20053;-70
2023/10/16 02:10:45;;;;;;;11.98;7.57;;;;;;;;;;10418209;28;20036;-69
2023/10/16 02:15:47;;;;;;;14.97;6.47;;;;;;;;;;10419464;28;20033;-69
2023/10/16 02:20:49;;;;;;;9.60;5.90;;;;;;;;;;10419002;28;20231;-69
2023/10/16 02:25:49;;;;;;;7.85;5.80;;;;;;;;;;10419704;28;20041;-69
2023/10/16 02:30:49;;;;;;;10.70;6.40;;;;;;;;;;10418789;28;20020;-69
2023/10/16 02:35:53;;;;;;;10.18;6.70;;;;;;;;;;10418599;28;20308;-69
2023/10/16 02:40:54;;;;;;;9.10;6.32;;;;;;;;;;10418343;28;20041;-70
2023/10/16 02:45:55;;;;;;;8.25;5.78;;;;;;;;;;10418194;28;20037;-70
2023/10/16 02:50:59;;;;;;;9.23;5.85;;;;;;;;;;10417530;28;20300;-70
2023/10/16 02:56:05;;;;;;;7.63;5.85;;;;;;;;;;10417837;28;20048;-69
2023/10/16 03:01:12;;;;;;;6.72;5.35;;;;;;;;;;10417227;28;20021;-69
2023/10/16 03:06:13;;;;;;;10.95;6.43;;;;;;;;;;10417522;28;20251;-69
2023/10/16 03:11:13;;;;;;;9.13;5.97;;;;;;;;;;10416070;28;20089;-69
2023/10/16 03:16:36;;;;;;;8.50;6.83;;;;;;;;;;10417125;28;20048;-68
2023/10/16 03:21:39;;;;;;;8.43;5.95;;;;;;;;;;10416561;28;20315;-68
2023/10/16 03:26:42;;;;;;;14.30;6.43;;;;;;;;;;10415806;28;20036;-68
2023/10/16 03:31:42;;;;;;;8.55;5.85;;;;;;;;;;10417288;28;20017;-68
2023/10/16 03:36:42;;;;;;;13.93;9.23;;;;;;;;;;10416037;28;20227;-68
2023/10/16 03:41:43;;;;;;;9.57;6.90;;;;;;;;;;10415763;28;20083;-68
2023/10/16 03:46:44;;;;;;;11.50;6.20;;;;;;;;;;10415894;28;20207;-68
2023/10/16 03:51:45;;;;;;;11.95;6.22;;;;;;;;;;10415448;28;20196;-68
2023/10/16 03:56:46;;;;;;;17.60;6.68;;;;;;;;;;10415532;28;20211;-70
2023/10/16 04:01:47;;;;;;;11.90;8.00;;;;;;;;;;10415684;28;20043;-70
2023/10/16 04:06:48;;;;;;;11.35;7.38;;;;;;;;;;10415614;28;20024;-70
2023/10/16 04:11:54;;;;;;;9.80;7.50;;;;;;;;;;10415132;28;20244;-68
2023/10/16 04:16:54;;;;;;;8.65;6.93;;;;;;;;;;10414954;28;20323;-68
2023/10/16 04:21:57;;;;;;;10.23;6.77;;;;;;;;;;10420752;28;20017;-69
2023/10/16 04:58:27;;;;;;;16.80;6.88;;;;;;;;;;10420633;28;20200;-70
2023/10/16 05:03:35;;;;;;;11.75;6.85;;;;;;;;;;10421772;28;20271;-68
2023/10/16 05:18:48;;;;;;;11.73;7.15;;;;;;;;;;10421328;28;20048;-68
2023/10/16 06:17:18;;;;;;;14.07;5.60;;;;;;;;;;10418861;28;19908;-68
2023/10/16 06:22:18;;;;;;;12.27;5.50;;;;;;;;;;10418655;28;20215;-68
2023/10/16 06:27:19;;;;;;;8.10;4.88;;;;;;;;;;10419323;28;20024;-68
2023/10/16 06:32:25;;;;;;;10.75;4.65;;;;;;;;;;10418686;28;20009;-68
2023/10/16 06:37:27;;;;;;;8.27;3.97;;;;;;;;;;10416901;28;20132;-70
2023/10/16 06:42:27;;;;;;;7.07;4.88;;;;;;;;;;10418727;28;20056;-70
2023/10/16 06:47:37;;;;;;;10.18;4.45;;;;;;;;;;10417697;28;20025;-69
2023/10/16 06:52:39;;;;;;;5.05;3.42;;;;;;;;;;10416269;28;20026;-68
2023/10/16 06:57:39;;;;;;;5.53;3.63;;;;;;;;;;10418158;28;20135;-69
2023/10/16 07:02:40;;;;;;;8.10;4.03;;;;;;;;;;10417330;28;20064;-69
2023/10/16 07:07:41;;;;;;;9.48;4.13;;;;;;;;;;10416077;28;20394;-68
2023/10/16 07:12:58;;;;;;;11.73;4.00;;;;;;;;;;10416634;28;20135;-69
2023/10/16 07:18:05;;;;;;;14.68;4.30;;;;;;;;;;10416271;28;20303;-69
2023/10/16 07:23:10;;;;;;;7.75;4.28;;;;;;;;;;10416621;28;20104;-69
2023/10/16 07:28:11;;;;;;;8.88;3.75;;;;;;;;;;10416313;28;20056;-69
2023/10/16 07:33:14;;;;;;;6.93;3.75;;;;;;;;;;10416600;28;20311;-68
2023/10/16 07:38:21;;;;;;;7.05;3.53;;;;;;;;;;10415912;28;20065;-69
2023/10/16 07:43:26;;;;;;;12.52;3.70;;;;;;;;;;10416528;28;20094;-68
2023/10/16 07:48:27;;;;;;;9.88;3.53;;;;;;;;;;10415302;28;20013;-69
2023/10/16 07:53:28;;;;;;;12.93;3.63;;;;;;;;;;10413901;28;20029;-69
2023/10/16 07:58:33;;;;;;;16.08;3.67;;;;;;;;;;10415311;28;20209;-69
2023/10/16 08:03:37;;;;;;;9.20;3.10;;;;;;;;;;10415293;28;20021;-68
2023/10/16 08:08:37;;;;;;;4.53;2.40;;;;;;;;;;10415374;28;20018;-69
2023/10/16 08:13:40;;;;;;;7.38;2.22;;;;;;;;;;10414846;28;20013;-69
2023/10/16 08:18:40;;;;;;;6.18;1.92;;;;;;;;;;10415103;28;20256;-69
2023/10/16 08:23:45;;;;;;;3.25;1.90;;;;;;;;;;10414963;28;20013;-68
2023/10/16 08:28:46;;;;;;;4.20;2.17;;;;;;;;;;10415545;28;20098;-69
2023/10/16 08:33:46;;;;;;;4.78;2.20;;;;;;;;;;10414814;28;20346;-65
2023/10/16 08:38:52;;;;;;;3.45;1.50;;;;;;;;;;10413748;28;20248;-65
2023/10/16 08:43:54;;;;;;;4.80;1.40;;;;;;;;;;10414893;28;20103;-65
2023/10/16 08:48:57;;;;;;;3.83;1.92;;;;;;;;;;10414303;28;20025;-65
2023/10/16 08:54:02;;;;;;;3.28;2.17;;;;;;;;;;10414969;28;20025;-66
2023/10/16 08:59:04;;;;;;;2.40;1.50;;;;;;;;;;10414483;28;20034;-64
2023/10/16 09:04:08;;;;;;;2.22;1.50;;;;;;;;;;10413337;28;20056;-66
2023/10/16 09:09:16;;;;;;;10.98;3.75;;;;;;;;;;10420343;28;20021;-66
2023/10/16 09:14:20;;;;;;;2.67;2.25;;;;;;;;;;10420916;28;20307;-66
2023/10/16 09:19:34;;;;;;;9.55;2.67;;;;;;;;;;10420787;28;20037;-65
2023/10/16 09:24:35;;;;;;;27.52;5.35;;;;;;;;;;10421803;28;20026;-65
2023/10/16 09:29:35;;;;;;;5.25;2.35;;;;;;;;;;10420330;28;20097;-65
2023/10/16 09:34:36;;;;;;;5.75;2.20;;;;;;;;;;10421022;28;20025;-65
2023/10/16 09:39:37;;;;;;;5.90;1.50;;;;;;;;;;10421336;28;20041;-65
2023/10/16 09:44:40;;;;;;;5.28;1.80;;;;;;;;;;10419230;28;20216;-66
2023/10/16 09:49:41;;;;;;;4.72;1.80;;;;;;;;;;10420260;28;20021;-66
2023/10/16 09:54:45;;;;;;;6.18;1.50;;;;;;;;;;10420029;28;20235;-66
2023/10/16 09:59:45;;;;;;;12.65;2.03;;;;;;;;;;10422744;28;20021;-65
2023/10/16 10:04:53;;;;;;;4.95;1.17;;;;;;;;;;10419569;28;20315;-65
2023/10/16 10:09:57;;;;;;;11.50;1.30;;;;;;;;;;10419323;28;20029;-65
2023/10/16 10:15:14;;;;;;;4.50;1.08;;;;;;;;;;10419028;28;20056;-65
2023/10/16 10:20:48;;;;;;;2.83;1.17;;;;;;;;;;10418446;28;20083;-66
2023/10/16 10:25:42;;;;;;;2.60;1.00;;;;;;;;;;10418282;28;20057;-66
2023/10/16 10:30:43;;;;;;;1.45;0.90;;;;;;;;;;10418708;28;20017;-66
2023/10/16 10:35:44;;;;;;;1.65;1.15;;;;;;;;;;10417611;28;20028;-66
2023/10/16 10:41:03;;;;;;;6.28;1.70;;;;;;;;;;10406820;28;20235;-66
2023/10/16 10:46:07;;;;;;;3.13;1.25;;;;;;;;;;10397490;28;20071;-66
2023/10/16 10:51:13;;;;;;;6.82;2.20;;;;;;;;;;10417528;28;20013;-66
2023/10/16 10:56:13;;;;;;;1.67;1.00;;;;;;;;;;10418200;28;20051;-65
2023/10/16 11:01:18;;;;;;;1.75;0.90;;;;;;;;;;10417121;28;20021;-65
2023/10/16 11:06:19;;;;;;;4.88;1.02;;;;;;;;;;10417155;28;20017;-65
2023/10/16 11:11:19;;;;;;;5.20;1.35;;;;;;;;;;10416713;28;20017;-66
2023/10/16 11:16:22;;;;;;;2.97;1.17;;;;;;;;;;10415828;28;20021;-65
2023/10/16 11:21:25;;;;;;;3.45;1.33;;;;;;;;;;10415159;28;20014;-65
2023/10/16 11:26:28;;;;;;;3.25;1.85;;;;;;;;;;10415222;28;20091;-66
2023/10/16 11:31:28;;;;;;;5.95;1.80;;;;;;;;;;10416133;28;20362;-65
2023/10/16 11:36:31;;;;;;;4.03;1.60;;;;;;;;;;10416116;28;20025;-65
2023/10/16 11:41:32;;;;;;;2.60;1.33;;;;;;;;;;10415131;28;20045;-66
2023/10/16 11:46:38;;;;;;;2.40;1.50;;;;;;;;;;10416097;28;20017;-66
2023/10/16 11:51:38;;;;;;;4.10;1.83;;;;;;;;;;10414986;28;20121;-65
2023/10/16 11:56:38;;;;;;;2.20;1.60;;;;;;;;;;10415695;28;20212;-66
2023/10/16 12:01:39;;;;;;;4.47;1.73;;;;;;;;;;10415727;28;20009;-66
2023/10/16 12:06:39;;;;;;;4.95;1.73;;;;;;;;;;10415216;28;20021;-65
2023/10/16 12:11:42;;;;;;;4.30;1.57;;;;;;;;;;10414412;28;20044;-67
2023/10/16 12:16:45;;;;;;;2.45;1.80;;;;;;;;;;10414264;28;20033;-66
2023/10/16 12:21:50;;;;;;;1.90;1.48;;;;;;;;;;10414569;28;20124;-66
2023/10/16 12:26:52;;;;;;;10.05;2.10;;;;;;;;;;10414828;28;20047;-66
2023/10/16 12:31:54;;;;;;;4.35;1.38;;;;;;;;;;10414849;28;20041;-65
2023/10/16 12:36:57;;;;;;;3.38;1.92;;;;;;;;;;10414227;28;20308;-66
2023/10/16 12:42:01;;;;;;;4.00;1.60;;;;;;;;;;10418955;28;20265;-66
2023/10/16 12:47:02;;;;;;;3.50;1.13;;;;;;;;;;10422260;28;20021;-66
2023/10/16 12:52:02;;;;;;;4.03;1.55;;;;;;;;;;10421741;28;20207;-66
2023/10/16 12:57:02;;;;;;;1.77;1.30;;;;;;;;;;10421890;28;20025;-66
2023/10/16 13:02:04;;;;;;;8.40;2.17;;;;;;;;;;10421820;28;20021;-66
2023/10/16 13:07:05;;;;;;;2.42;1.80;;;;;;;;;;10422027;28;20026;-66
2023/10/16 13:12:08;;;;;;;7.13;1.60;;;;;;;;;;10421261;28;20380;-67
2023/10/16 13:17:08;;;;;;;7.47;1.52;;;;;;;;;;10421455;28;20235;-65
2023/10/16 13:22:10;;;;;;;5.70;1.85;;;;;;;;;;10421055;28;20029;-66
2023/10/16 13:27:11;;;;;;;4.25;1.60;;;;;;;;;;10420597;28;20025;-65
2023/10/16 13:32:12;;;;;;;3.72;1.67;;;;;;;;;;10418014;28;20207;-66
2023/10/16 13:37:13;;;;;;;6.35;1.30;;;;;;;;;;10418671;28;20053;-66
2023/10/16 13:42:14;;;;;;;1.90;0.83;;;;;;;;;;10419458;28;20048;-64
2023/10/16 13:47:14;;;;;;;2.08;1.05;;;;;;;;;;10418183;28;20014;-66
2023/10/16 13:52:15;;;;;;;3.13;1.83;;;;;;;;;;10417198;28;20048;-66
2023/10/16 13:57:15;;;;;;;3.25;1.10;;;;;;;;;;10418348;28;20126;-65
2023/10/16 14:02:16;;;;;;;3.85;1.20;;;;;;;;;;10416760;28;20029;-65
2023/10/16 14:07:19;;;;;;;1.90;1.13;;;;;;;;;;10417565;28;20215;-65
2023/10/16 14:12:25;;;;;;;4.22;1.30;;;;;;;;;;10417765;28;20342;-65
2023/10/16 14:17:31;;;;;;;1.80;0.93;;;;;;;;;;10417142;28;20025;-65
2023/10/16 14:22:32;;;;;;;2.83;1.20;;;;;;;;;;10414776;28;20311;-65
2023/10/16 14:27:32;;;;;;;2.45;1.13;;;;;;;;;;10416925;28;20036;-65
2023/10/16 14:32:34;;;;;;;1.27;0.80;;;;;;;;;;10415919;28;20071;-66
2023/10/16 14:37:35;;;;;;;4.65;1.13;;;;;;;;;;10415442;28;20072;-66
2023/10/16 14:42:35;;;;;;;3.40;1.50;;;;;;;;;;10416499;28;20036;-65
2023/10/16 14:47:36;;;;;;;5.50;1.75;;;;;;;;;;10415243;28;20029;-66
2023/10/16 14:52:36;;;;;;;6.75;2.10;;;;;;;;;;10415136;28;20025;-65
2023/10/16 14:57:36;;;;;;;3.90;2.17;;;;;;;;;;10416131;28;20395;-65
2023/10/16 15:02:37;;;;;;;6.72;2.45;;;;;;;;;;10414209;28;20029;-65
2023/10/16 15:07:37;;;;;;;5.60;3.00;;;;;;;;;;10415218;28;20056;-66
2023/10/16 15:12:38;;;;;;;8.43;2.63;;;;;;;;;;10414998;28;20298;-65
2023/10/16 15:17:38;;;;;;;7.80;2.33;;;;;;;;;;10415040;28;20040;-65
2023/10/16 15:22:42;;;;;;;7.60;2.53;;;;;;;;;;10411986;28;20204;-65
2023/10/16 15:27:43;;;;;;;2.90;2.20;;;;;;;;;;10414053;28;20033;-67
2023/10/16 15:32:44;;;;;;;6.75;2.20;;;;;;;;;;10414280;28;20021;-66
2023/10/16 15:37:45;;;;;;;5.07;2.77;;;;;;;;;;10413519;28;20340;-66
2023/10/16 15:42:48;;;;;;;9.35;2.65;;;;;;;;;;10405398;28;20222;-66
2023/10/16 15:47:48;;;;;;;14.82;2.53;;;;;;;;;;10407649;28;20315;-66
2023/10/16 15:52:49;;;;;;;7.80;2.28;;;;;;;;;;10407307;28;20080;-71
2023/10/16 15:57:49;;;;;;;6.80;2.67;;;;;;;;;;10407054;28;20018;-70
2023/10/16 16:02:52;;;;;;;4.20;1.90;;;;;;;;;;10405981;28;20028;-70
2023/10/16 16:07:52;;;;;;;4.82;2.15;;;;;;;;;;10408341;28;20026;-70
2023/10/16 16:12:53;;;;;;;9.95;2.15;;;;;;;;;;10407995;28;20089;-69
2023/10/16 16:18:04;;;;;;;3.85;2.30;;;;;;;;;;10413114;28;20060;-77
2023/10/16 16:23:05;;;;;;;9.40;2.50;;;;;;;;;;10414267;28;20021;-74
2023/10/16 16:28:05;;;;;;;7.90;2.60;;;;;;;;;;10420719;28;20063;-74
2023/10/16 16:33:06;;;;;;;9.40;5.03;;;;;;;;;;10419758;28;20033;-77
2023/10/16 16:38:09;;;;;;;10.45;4.10;;;;;;;;;;10421451;28;20041;-73
2023/10/16 16:43:09;;;;;;;7.28;3.75;;;;;;;;;;10421597;28;20033;-79
2023/10/16 16:48:11;;;;;;;8.65;4.32;;;;;;;;;;10420533;28;20382;-79
2023/10/16 16:53:11;;;;;;;8.90;4.47;;;;;;;;;;10419271;28;20021;-78
2023/10/16 16:58:12;;;;;;;8.60;4.53;;;;;;;;;;10423309;28;20096;-82
2023/10/16 17:03:12;;;;;;;18.17;5.53;;;;;;;;;;10420987;28;20056;-81
2023/10/16 17:08:12;;;;;;;9.18;4.63;;;;;;;;;;10416285;28;20008;-83
2023/10/16 17:13:14;;;;;;;6.37;3.60;;;;;;;;;;10423559;28;20021;-83
2023/10/16 17:18:15;;;;;;;7.82;4.13;;;;;;;;;;10413429;28;20264;-80
2023/10/16 17:23:16;;;;;;;7.72;4.00;;;;;;;;;;10417326;28;20208;-81
2023/10/16 17:28:16;;;;;;;9.43;4.07;;;;;;;;;;10419765;28;20021;-79
2023/10/16 17:33:17;;;;;;;12.13;3.85;;;;;;;;;;10420227;28;20072;-79
2023/10/16 17:38:17;;;;;;;9.75;3.85;;;;;;;;;;10411207;28;20033;-80
2023/10/16 17:43:19;;;;;;;10.05;4.38;;;;;;;;;;10421294;28;20059;-82
2023/10/16 17:48:19;;;;;;;12.27;4.30;;;;;;;;;;10417011;28;20181;-78
2023/10/16 17:53:20;;;;;;;11.55;5.15;;;;;;;;;;10417510;28;20041;-76
2023/10/16 17:58:23;;;;;;;13.73;4.67;;;;;;;;;;10420254;28;20032;-79
2023/10/16 18:03:31;;;;;;;8.45;4.55;;;;;;;;;;10409713;28;20196;-79
2023/10/16 18:08:31;;;;;;;11.87;4.97;;;;;;;;;;10417803;28;20037;-79
2023/10/16 18:13:32;;;;;;;19.83;5.35;;;;;;;;;;10418754;28;20352;-79
2023/10/16 18:18:33;;;;;;;10.10;3.78;;;;;;;;;;10409626;28;20234;-78
2023/10/16 18:23:33;;;;;;;7.32;3.75;;;;;;;;;;10418481;28;20216;-79
2023/10/16 18:28:33;;;;;;;4.75;3.10;;;;;;;;;;10417971;28;20033;-79
2023/10/16 18:33:34;;;;;;;9.38;3.47;;;;;;;;;;10417219;28;20022;-79
2023/10/16 18:38:34;;;;;;;8.43;3.90;;;;;;;;;;10415608;28;20221;-77
2023/10/16 18:43:34;;;;;;;4.78;3.53;;;;;;;;;;10416157;28;20042;-79
2023/10/16 18:48:36;;;;;;;4.47;3.23;;;;;;;;;;10415611;28;20024;-78
2023/10/16 18:53:37;;;;;;;8.18;4.95;;;;;;;;;;10416400;28;20021;-79
2023/10/16 18:58:38;;;;;;;6.15;3.60;;;;;;;;;;10415569;28;20097;-80
2023/10/16 19:03:39;;;;;;;6.35;3.20;;;;;;;;;;10415951;28;20025;-81
2023/10/16 19:08:40;;;;;;;7.55;3.35;;;;;;;;;;10414868;28;20017;-69
2023/10/16 19:13:41;;;;;;;5.45;3.60;;;;;;;;;;10415534;28;20041;-70
2023/10/16 19:18:42;;;;;;;6.82;2.83;;;;;;;;;;10414846;28;20021;-69
2023/10/16 19:23:42;;;;;;;7.45;3.47;;;;;;;;;;10414918;28;20264;-71
2023/10/16 19:28:43;;;;;;;6.68;3.90;;;;;;;;;;10414310;28;20029;-75
2023/10/16 19:33:45;;;;;;;7.20;3.40;;;;;;;;;;10415042;28;20331;-75
2023/10/16 19:38:49;;;;;;;9.20;3.00;;;;;;;;;;10413719;28;20351;-75
2023/10/16 19:43:50;;;;;;;8.10;3.05;;;;;;;;;;10413631;28;20052;-76
2023/10/16 19:48:51;;;;;;;9.00;4.70;;;;;;;;;;10413847;28;20269;-76
2023/10/16 19:53:54;;;;;;;7.07;3.25;;;;;;;;;;10412871;28;20013;-75
2023/10/16 19:58:56;;;;;;;7.65;3.42;;;;;;;;;;10413383;28;20323;-76
2023/10/16 20:03:56;;;;;;;5.88;2.63;;;;;;;;;;10415375;28;20089;-75
2023/10/16 20:08:57;;;;;;;5.73;3.17;;;;;;;;;;10412336;28;20189;-74
2023/10/16 20:13:58;;;;;;;6.63;2.80;;;;;;;;;;10411679;28;20021;-76
2023/10/16 20:18:58;;;;;;;3.97;2.70;;;;;;;;;;10414298;28;20207;-76
2023/10/16 20:24:03;;;;;;;3.35;2.53;;;;;;;;;;10413434;28;20238;-76
2023/10/16 20:29:05;;;;;;;6.47;2.92;;;;;;;;;;10413580;28;20083;-75
2023/10/16 20:34:06;;;;;;;3.05;2.38;;;;;;;;;;10412701;28;20097;-75
2023/10/16 20:39:07;;;;;;;4.03;2.28;;;;;;;;;;10412989;28;20562;-75
2023/10/16 20:44:08;;;;;;;5.32;2.42;;;;;;;;;;10413193;28;20115;-74
2023/10/16 20:49:08;;;;;;;3.78;3.33;;;;;;;;;;10409783;28;20197;-76
2023/10/16 20:54:09;;;;;;;6.22;2.65;;;;;;;;;;10402803;28;20235;-73
2023/10/16 20:59:09;;;;;;;4.43;2.15;;;;;;;;;;10411472;28;20055;-75
2023/10/16 21:04:10;;;;;;;5.07;1.98;;;;;;;;;;10418538;28;20026;-74
2023/10/16 21:09:13;;;;;;;3.50;2.50;;;;;;;;;;10419938;28;20025;-73
2023/10/16 21:14:14;;;;;;;7.88;2.35;;;;;;;;;;10418652;28;20045;-74
2023/10/16 21:19:14;;;;;;;3.60;2.87;;;;;;;;;;10417505;28;20017;-74
2023/10/16 21:24:14;;;;;;;7.90;2.97;;;;;;;;;;10417469;28;20014;-74
2023/10/16 21:29:15;;;;;;;4.55;1.98;;;;;;;;;;10418462;28;20013;-74
2023/10/16 21:34:15;;;;;;;6.50;2.37;;;;;;;;;;10420562;28;20009;-74
2023/10/16 21:39:15;;;;;;;6.65;2.83;;;;;;;;;;10420261;28;20513;-74
2023/10/16 21:44:15;;;;;;;2.70;2.00;;;;;;;;;;10420323;28;20361;-74
2023/10/16 21:49:16;;;;;;;2.80;2.03;;;;;;;;;;10420670;28;20052;-74
2023/10/16 21:54:16;;;;;;;3.13;2.17;;;;;;;;;;10421043;28;20021;-73
2023/10/16 21:59:17;;;;;;;4.37;2.20;;;;;;;;;;10421049;28;20188;-73
2023/10/16 22:04:18;;;;;;;3.58;2.00;;;;;;;;;;10420465;28;20025;-73
2023/10/16 22:09:21;;;;;;;3.08;2.08;;;;;;;;;;10420220;28;20357;-73
2023/10/16 22:14:21;;;;;;;2.97;1.98;;;;;;;;;;10419210;28;20255;-74
2023/10/16 22:19:24;;;;;;;3.85;2.28;;;;;;;;;;10416538;28;20037;-74
2023/10/16 22:24:25;;;;;;;3.70;2.00;;;;;;;;;;10419371;28;20029;-74
2023/10/16 22:29:25;;;;;;;5.82;2.25;;;;;;;;;;10419288;28;20207;-74
2023/10/16 22:34:26;;;;;;;3.03;2.30;;;;;;;;;;10419474;28;20029;-73
2023/10/16 22:39:27;;;;;;;4.75;2.78;;;;;;;;;;10419242;28;20388;-75
2023/10/16 22:44:27;;;;;;;8.38;2.13;;;;;;;;;;10418382;28;20024;-74
2023/10/16 22:49:28;;;;;;;2.37;1.90;;;;;;;;;;10418656;28;20044;-74
2023/10/16 22:54:28;;;;;;;4.32;2.28;;;;;;;;;;10418547;28;20088;-75
2023/10/16 22:59:29;;;;;;;4.93;2.15;;;;;;;;;;10418209;28;20021;-75
2023/10/16 23:04:29;;;;;;;2.92;1.88;;;;;;;;;;10418201;28;20361;-74
2023/10/16 23:09:29;;;;;;;5.23;3.03;;;;;;;;;;10418186;28;20195;-74
2023/10/16 23:14:33;;;;;;;6.33;2.77;;;;;;;;;;10417693;28;20268;-74
2023/10/16 23:19:34;;;;;;;7.38;3.13;;;;;;;;;;10417569;28;20193;-74
2023/10/16 23:24:35;;;;;;;7.28;3.50;;;;;;;;;;10417309;28;20022;-74
2023/10/16 23:29:36;;;;;;;5.22;3.17;;;;;;;;;;10417089;28;20017;-74
2023/10/16 23:34:47;;;;;;;5.22;3.35;;;;;;;;;;10417341;28;20136;-74
2023/10/16 23:39:47;;;;;;;5.40;3.53;;;;;;;;;;10421325;28;20080;-74
2023/10/16 23:44:49;;;;;;;4.60;3.53;;;;;;;;;;10416880;28;20323;-74
2023/10/16 23:49:50;;;;;;;6.20;3.58;;;;;;;;;;10416553;28;20292;-74
2023/10/16 23:55:09;;;;;;;8.57;4.07;;;;;;;;;;10387537;28;20021;-74
